Time;durP1;ratioP1;P1;durP2;ratioP2;P2;SDS_P1;SDS_P2;PMS_P1;PMS_P2;Temp;Humidity;BMP_temperature;BMP_pressure;BME280_temperature;BME280_humidity;BME280_pressure;Samples;Min_cycle;Max_cycle;Signal;HPM_P1;HPM_P2
2023/07/21 00:01:08;;;;;;;;;;;15.10;96.60;;;;;;5114317;28;20302;-67
2023/07/21 00:03:35;;;;;;;;;;;15.20;96.10;;;;;;5113678;28;20001;-66
2023/07/21 00:06:06;;;;;;;;;;;15.40;96.00;;;;;;5108569;28;19912;-66
2023/07/21 00:08:33;;;;;;;;;;;15.40;96.10;;;;;;5109177;28;20022;-67
2023/07/21 00:11:00;;;;;;;;;;;15.40;95.70;;;;;;5093535;28;19963;-68
2023/07/21 00:13:27;;;;;;;;;;;15.60;95.60;;;;;;5093486;28;20372;-67
2023/07/21 00:15:54;;;;;;;;;;;15.70;95.30;;;;;;5106454;28;19927;-66
2023/07/21 00:18:22;;;;;;;;;;;15.80;95.10;;;;;;5111509;28;19908;-65
2023/07/21 00:20:49;;;;;;;;;;;15.90;94.80;;;;;;5109766;28;19908;-66
2023/07/21 00:23:19;;;;;;;;;;;15.90;94.50;;;;;;5113797;28;19968;-65
2023/07/21 00:25:46;;;;;;;;;;;16.00;94.20;;;;;;5113448;28;19908;-67
2023/07/21 00:28:13;;;;;;;;;;;16.00;94.10;;;;;;5113528;28;20356;-66
2023/07/21 00:30:40;;;;;;;;;;;16.00;94.20;;;;;;5113192;28;19916;-64
2023/07/21 00:33:06;;;;;;;;;;;16.00;94.00;;;;;;5113892;28;20295;-63
2023/07/21 00:35:34;;;;;;;;;;;16.00;93.90;;;;;;5100995;28;19909;-65
2023/07/21 00:38:01;;;;;;;;;;;16.10;93.70;;;;;;5095055;28;19912;-66
2023/07/21 00:40:28;;;;;;;;;;;16.20;93.70;;;;;;5094613;28;19908;-65
2023/07/21 00:42:57;;;;;;;;;;;16.30;93.30;;;;;;5098538;28;19924;-67
2023/07/21 00:45:24;;;;;;;;;;;16.30;93.40;;;;;;5092907;28;20374;-68
2023/07/21 00:47:51;;;;;;;;;;;16.50;93.10;;;;;;5105270;28;19912;-66
2023/07/21 00:50:18;;;;;;;;;;;16.60;92.70;;;;;;5110668;28;20295;-66
2023/07/21 00:52:49;;;;;;;;;;;16.60;92.60;;;;;;5112397;28;20401;-65
2023/07/21 00:55:15;;;;;;;;;;;16.80;92.40;;;;;;5112392;28;19918;-65
2023/07/21 00:57:43;;;;;;;;;;;16.90;92.40;;;;;;5112967;28;20321;-67
2023/07/21 01:00:13;;;;;;;;;;;16.90;92.00;;;;;;5112925;28;19907;-66
2023/07/21 01:02:40;;;;;;;;;;;16.90;92.00;;;;;;5112197;28;20360;-66
2023/07/21 01:05:08;;;;;;;;;;;16.90;91.90;;;;;;5111081;28;20630;-68
2023/07/21 01:07:35;;;;;;;;;;;16.80;92.00;;;;;;5092714;28;19962;-66
2023/07/21 01:10:03;;;;;;;;;;;16.90;92.10;;;;;;5092643;28;19924;-63
2023/07/21 01:12:30;;;;;;;;;;;16.90;91.80;;;;;;5092200;28;20382;-64
2023/07/21 01:14:57;;;;;;;;;;;16.80;91.50;;;;;;5092602;28;19948;-67
2023/07/21 01:17:25;;;;;;;;;;;16.90;91.80;;;;;;5106728;28;19908;-65
2023/07/21 01:19:52;;;;;;;;;;;17.10;91.80;;;;;;5102579;28;20284;-68
2023/07/21 01:22:23;;;;;;;;;;;17.10;91.50;;;;;;5111347;28;20375;-63
2023/07/21 01:24:50;;;;;;;;;;;17.20;91.40;;;;;;5113022;28;19920;-68
2023/07/21 01:27:21;;;;;;;;;;;17.30;91.00;;;;;;5112609;28;19912;-66
2023/07/21 01:29:48;;;;;;;;;;;17.40;90.50;;;;;;5112261;28;19915;-65
2023/07/21 01:32:16;;;;;;;;;;;17.60;90.20;;;;;;5111470;28;19920;-66
2023/07/21 01:34:43;;;;;;;;;;;17.50;90.10;;;;;;5112168;28;19916;-65
2023/07/21 01:37:10;;;;;;;;;;;17.60;90.00;;;;;;5111940;28;19929;-64
2023/07/21 01:39:37;;;;;;;;;;;17.60;90.40;;;;;;5112830;28;19914;-68
2023/07/21 01:42:05;;;;;;;;;;;17.90;87.60;;;;;;5109452;28;20508;-66
2023/07/21 01:44:32;;;;;;;;;;;18.00;87.70;;;;;;5092527;28;19977;-67
2023/07/21 01:46:59;;;;;;;;;;;18.10;87.50;;;;;;5092761;28;19908;-66
2023/07/21 01:49:26;;;;;;;;;;;18.00;87.50;;;;;;5104886;28;19964;-68
2023/07/21 01:51:57;;;;;;;;;;;18.00;85.00;;;;;;5111843;28;20432;-68
2023/07/21 01:54:26;;;;;;;;;;;18.00;85.20;;;;;;5112668;28;19946;-66
2023/07/21 01:56:55;;;;;;;;;;;18.00;86.20;;;;;;5100608;28;19978;-68
2023/07/21 01:59:22;;;;;;;;;;;18.10;85.80;;;;;;5098817;28;19916;-68
2023/07/21 02:01:54;;;;;;;;;;;18.20;84.50;;;;;;5116173;28;19918;-66
2023/07/21 02:04:21;;;;;;;;;;;18.20;84.80;;;;;;5116812;28;19986;-68
2023/07/21 02:06:48;;;;;;;;;;;18.30;84.30;;;;;;5111059;28;19912;-68
2023/07/21 02:09:15;;;;;;;;;;;18.40;84.60;;;;;;5108775;28;19920;-66
2023/07/21 02:11:43;;;;;;;;;;;18.40;83.90;;;;;;5110383;28;19951;-64
2023/07/21 02:14:10;;;;;;;;;;;18.40;85.20;;;;;;5112477;28;19939;-68
2023/07/21 02:16:39;;;;;;;;;;;18.50;84.10;;;;;;5103390;28;19912;-66
2023/07/21 02:19:06;;;;;;;;;;;18.50;82.80;;;;;;5109655;28;19916;-68
2023/07/21 02:21:33;;;;;;;;;;;18.50;83.60;;;;;;5093847;28;19912;-66
2023/07/21 02:24:00;;;;;;;;;;;18.50;83.90;;;;;;5112187;28;19908;-67
2023/07/21 02:26:27;;;;;;;;;;;18.50;84.10;;;;;;5110473;28;19912;-67
2023/07/21 02:28:53;;;;;;;;;;;18.50;83.20;;;;;;5096207;28;19919;-65
2023/07/21 02:31:21;;;;;;;;;;;18.50;84.00;;;;;;5098951;28;19916;-64
2023/07/21 02:33:48;;;;;;;;;;;18.40;83.70;;;;;;5111415;28;19924;-67
2023/07/21 02:36:16;;;;;;;;;;;18.40;83.30;;;;;;5110972;28;20425;-68
2023/07/21 02:38:42;;;;;;;;;;;18.40;82.60;;;;;;5111485;28;19938;-66
2023/07/21 02:41:09;;;;;;;;;;;18.40;82.40;;;;;;5109837;28;20014;-66
2023/07/21 02:43:36;;;;;;;;;;;18.50;83.10;;;;;;5090912;28;19920;-67
2023/07/21 02:46:04;;;;;;;;;;;18.60;80.20;;;;;;5091242;28;19962;-66
2023/07/21 02:48:32;;;;;;;;;;;18.60;77.80;;;;;;5110598;28;20416;-66
2023/07/21 02:51:00;;;;;;;;;;;18.70;77.20;;;;;;5111857;28;19951;-67
2023/07/21 02:53:27;;;;;;;;;;;18.80;74.70;;;;;;5111578;28;20364;-68
2023/07/21 02:55:54;;;;;;;;;;;18.90;74.40;;;;;;5108252;28;19919;-66
2023/07/21 02:58:20;;;;;;;;;;;19.10;74.70;;;;;;5104337;28;20364;-68
2023/07/21 03:00:47;;;;;;;;;;;19.40;73.80;;;;;;5110968;28;19912;-63
2023/07/21 03:03:15;;;;;;;;;;;19.80;73.90;;;;;;5111332;28;19944;-66
2023/07/21 03:05:41;;;;;;;;;;;20.00;72.70;;;;;;5110839;28;19969;-68
2023/07/21 03:08:09;;;;;;;;;;;20.10;72.10;;;;;;5111955;28;19931;-63
2023/07/21 03:10:35;;;;;;;;;;;19.90;72.00;;;;;;5112748;28;19964;-64
2023/07/21 03:13:02;;;;;;;;;;;19.70;72.40;;;;;;5114877;28;20002;-64
2023/07/21 03:15:28;;;;;;;;;;;19.40;73.00;;;;;;5115758;28;19951;-63
2023/07/21 03:17:55;;;;;;;;;;;19.20;72.40;;;;;;5114715;28;20340;-67
2023/07/21 03:20:22;;;;;;;;;;;20.00;71.90;;;;;;5115313;28;20011;-65
2023/07/21 03:22:48;;;;;;;;;;;21.00;70.30;;;;;;5114570;28;19912;-67
2023/07/21 03:25:15;;;;;;;;;;;21.50;68.40;;;;;;5115488;28;19915;-64
2023/07/21 03:27:42;;;;;;;;;;;21.60;68.00;;;;;;5115314;28;19912;-66
2023/07/21 03:30:11;;;;;;;;;;;21.70;68.40;;;;;;5111554;28;20367;-65
2023/07/21 03:32:38;;;;;;;;;;;21.60;69.20;;;;;;5094286;28;19952;-66
2023/07/21 03:35:05;;;;;;;;;;;21.60;69.00;;;;;;5094686;28;19908;-64
2023/07/21 03:37:34;;;;;;;;;;;22.00;67.90;;;;;;5110723;28;20691;-63
2023/07/21 03:40:06;;;;;;;;;;;22.70;67.10;;;;;;5114347;28;19908;-66
2023/07/21 03:42:35;;;;;;;;;;;24.20;64.90;;;;;;5102789;28;20030;-64
2023/07/21 03:45:06;;;;;;;;;;;25.80;63.60;;;;;;5094408;28;19928;-66
2023/07/21 03:47:34;;;;;;;;;;;27.40;60.60;;;;;;5107147;28;19912;-67
2023/07/21 03:50:01;;;;;;;;;;;29.00;59.20;;;;;;5113727;28;20391;-67
2023/07/21 03:52:28;;;;;;;;;;;30.10;55.60;;;;;;5102995;28;19923;-67
2023/07/21 03:54:55;;;;;;;;;;;30.30;54.00;;;;;;5094487;28;19934;-67
2023/07/21 03:57:22;;;;;;;;;;;30.20;54.30;;;;;;5109048;28;19915;-66
2023/07/21 03:59:49;;;;;;;;;;;30.20;53.20;;;;;;5114975;28;20303;-66
2023/07/21 04:02:18;;;;;;;;;;;30.60;53.10;;;;;;5076367;28;19923;-68
2023/07/21 04:04:46;;;;;;;;;;;30.60;52.30;;;;;;5094374;28;20638;-66
2023/07/21 04:07:13;;;;;;;;;;;30.20;52.00;;;;;;5107570;28;20382;-66
2023/07/21 04:09:40;;;;;;;;;;;30.60;52.10;;;;;;5114520;28;19918;-66
2023/07/21 04:12:07;;;;;;;;;;;30.70;51.00;;;;;;5113609;28;19951;-67
2023/07/21 04:14:34;;;;;;;;;;;30.90;50.50;;;;;;5114281;28;19909;-65
2023/07/21 04:17:00;;;;;;;;;;;30.60;48.10;;;;;;5113020;28;19930;-66
2023/07/21 04:19:27;;;;;;;;;;;30.80;48.00;;;;;;5113130;28;19922;-65
2023/07/21 04:21:54;;;;;;;;;;;30.80;47.60;;;;;;5110681;28;19918;-67
2023/07/21 04:24:21;;;;;;;;;;;29.50;48.00;;;;;;5110331;28;20403;-66
2023/07/21 04:26:47;;;;;;;;;;;28.00;49.10;;;;;;5102817;28;19981;-66
2023/07/21 04:29:14;;;;;;;;;;;26.70;62.00;;;;;;5094067;28;19912;-64
2023/07/21 04:31:41;;;;;;;;;;;25.30;64.90;;;;;;5109990;28;19998;-68
2023/07/21 04:34:07;;;;;;;;;;;24.30;68.20;;;;;;5114461;28;20312;-66
2023/07/21 04:36:35;;;;;;;;;;;23.60;70.50;;;;;;5113861;28;20003;-63
2023/07/21 04:39:01;;;;;;;;;;;23.10;71.90;;;;;;5113736;28;19914;-66
2023/07/21 04:41:28;;;;;;;;;;;22.70;73.00;;;;;;5113733;28;19908;-63
2023/07/21 04:43:55;;;;;;;;;;;22.10;75.30;;;;;;5112961;28;19927;-64
2023/07/21 04:46:22;;;;;;;;;;;21.60;77.30;;;;;;5112974;28;20288;-65
2023/07/21 04:48:49;;;;;;;;;;;21.10;79.00;;;;;;5112625;28;20253;-65
2023/07/21 04:51:15;;;;;;;;;;;20.70;80.30;;;;;;5094814;28;20830;-65
2023/07/21 04:53:42;;;;;;;;;;;20.10;82.60;;;;;;5112890;28;19914;-64
2023/07/21 04:56:09;;;;;;;;;;;19.70;83.60;;;;;;5109175;28;20003;-66
2023/07/21 04:58:35;;;;;;;;;;;19.40;85.10;;;;;;5095344;28;19947;-65
2023/07/21 05:01:02;;;;;;;;;;;19.10;86.50;;;;;;5112957;28;19968;-67
2023/07/21 05:03:29;;;;;;;;;;;18.90;87.50;;;;;;5112763;28;19915;-64
2023/07/21 05:05:55;;;;;;;;;;;18.70;88.80;;;;;;5112821;28;19908;-66
2023/07/21 05:08:22;;;;;;;;;;;18.50;89.00;;;;;;5113640;28;19908;-65
2023/07/21 05:10:48;;;;;;;;;;;18.40;89.40;;;;;;5112203;28;19930;-66
2023/07/21 05:13:15;;;;;;;;;;;18.20;89.90;;;;;;5113029;28;19914;-63
2023/07/21 05:15:42;;;;;;;;;;;18.10;90.30;;;;;;5101964;28;20014;-64
2023/07/21 05:18:09;;;;;;;;;;;18.00;90.70;;;;;;5096148;28;19916;-67
2023/07/21 05:20:39;;;;;;;;;;;18.00;90.90;;;;;;5105158;28;19912;-65
2023/07/21 05:23:06;;;;;;;;;;;18.00;91.10;;;;;;5109733;28;20318;-67
2023/07/21 05:25:33;;;;;;;;;;;18.00;91.40;;;;;;5112407;28;19947;-65
2023/07/21 05:27:59;;;;;;;;;;;18.10;91.40;;;;;;5091890;28;19985;-64
2023/07/21 05:30:26;;;;;;;;;;;18.00;91.00;;;;;;5100498;28;20372;-66
2023/07/21 05:32:56;;;;;;;;;;;17.90;90.90;;;;;;5092102;28;19912;-66
2023/07/21 05:35:23;;;;;;;;;;;17.80;91.00;;;;;;5091730;28;20269;-66
2023/07/21 05:37:49;;;;;;;;;;;17.80;91.10;;;;;;5110787;28;20318;-65
2023/07/21 05:40:16;;;;;;;;;;;17.70;91.40;;;;;;5093602;28;19936;-66
2023/07/21 05:42:43;;;;;;;;;;;17.70;91.70;;;;;;5097327;28;19931;-66
2023/07/21 05:45:11;;;;;;;;;;;17.60;92.20;;;;;;5105655;28;19972;-65
2023/07/21 05:47:38;;;;;;;;;;;17.50;92.50;;;;;;5112319;28;19915;-68
2023/07/21 05:50:05;;;;;;;;;;;17.50;92.60;;;;;;5111763;28;19936;-67
2023/07/21 05:52:31;;;;;;;;;;;17.50;92.90;;;;;;5094089;28;19908;-67
2023/07/21 05:54:58;;;;;;;;;;;17.50;92.80;;;;;;5111797;28;19954;-67
2023/07/21 05:57:25;;;;;;;;;;;17.40;92.90;;;;;;5078699;28;19912;-66
2023/07/21 05:59:52;;;;;;;;;;;17.60;93.10;;;;;;5099661;28;19914;-66
2023/07/21 06:02:18;;;;;;;;;;;17.80;93.10;;;;;;5112054;28;19908;-66
2023/07/21 06:04:46;;;;;;;;;;;17.80;92.60;;;;;;5112278;28;19915;-67
2023/07/21 06:07:12;;;;;;;;;;;17.80;92.60;;;;;;5099335;28;19987;-68
2023/07/21 06:09:39;;;;;;;;;;;17.90;93.00;;;;;;5095643;28;20258;-65
2023/07/21 06:12:06;;;;;;;;;;;18.20;91.90;;;;;;5107121;28;19916;-67
2023/07/21 06:14:33;;;;;;;;;;;18.30;91.80;;;;;;5111997;28;19919;-67
2023/07/21 06:17:00;;;;;;;;;;;18.40;92.00;;;;;;5101309;28;19916;-64
2023/07/21 06:19:27;;;;;;;;;;;18.30;91.40;;;;;;5110308;28;19912;-66
2023/07/21 06:21:53;;;;;;;;;;;18.30;91.30;;;;;;5097354;28;19912;-66
2023/07/21 06:24:20;;;;;;;;;;;18.20;91.30;;;;;;5093469;28;19908;-67
2023/07/21 06:26:47;;;;;;;;;;;18.10;91.50;;;;;;5111665;28;19931;-65
2023/07/21 06:29:13;;;;;;;;;;;17.90;91.50;;;;;;5110738;28;20370;-65
2023/07/21 06:31:40;;;;;;;;;;;17.70;91.90;;;;;;5111235;28;20002;-66
2023/07/21 06:34:08;;;;;;;;;;;17.50;92.30;;;;;;5106228;28;19920;-65
2023/07/21 06:36:35;;;;;;;;;;;17.40;92.50;;;;;;5108253;28;20356;-64
2023/07/21 06:39:02;;;;;;;;;;;17.20;92.60;;;;;;5106728;28;19912;-64
2023/07/21 06:41:28;;;;;;;;;;;17.00;92.80;;;;;;5109215;28;19915;-65
2023/07/21 06:43:55;;;;;;;;;;;17.00;93.20;;;;;;5111157;28;19920;-66
2023/07/21 06:46:22;;;;;;;;;;;16.70;93.40;;;;;;5114809;28;19908;-65
2023/07/21 06:48:48;;;;;;;;;;;16.60;93.20;;;;;;5115461;28;19973;-65
2023/07/21 06:51:15;;;;;;;;;;;16.50;93.10;;;;;;5113953;28;19929;-66
2023/07/21 06:53:42;;;;;;;;;;;16.40;92.90;;;;;;5115326;28;19957;-65
2023/07/21 06:56:10;;;;;;;;;;;16.30;92.80;;;;;;5109761;28;19912;-67
2023/07/21 06:58:37;;;;;;;;;;;16.30;92.80;;;;;;5103576;28;19957;-67
2023/07/21 07:01:03;;;;;;;;;;;16.30;93.00;;;;;;5113319;28;19912;-65
2023/07/21 07:03:30;;;;;;;;;;;16.20;93.00;;;;;;5114979;28;19930;-66
2023/07/21 07:05:57;;;;;;;;;;;16.10;93.20;;;;;;5111920;28;19923;-68
2023/07/21 07:08:24;;;;;;;;;;;16.00;93.30;;;;;;5099163;28;19915;-65
2023/07/21 07:10:51;;;;;;;;;;;15.90;93.30;;;;;;5105141;28;19927;-68
2023/07/21 07:13:18;;;;;;;;;;;15.90;93.70;;;;;;5110467;28;19976;-67
2023/07/21 07:15:49;;;;;;;;;;;15.80;93.90;;;;;;5114779;28;19915;-64
2023/07/21 07:18:16;;;;;;;;;;;15.70;94.00;;;;;;5115331;28;20383;-64
2023/07/21 07:20:52;;;;;;;;;;;15.70;94.30;;;;;;5115387;28;19915;-64
2023/07/21 07:23:19;;;;;;;;;;;15.60;94.70;;;;;;5116219;28;19950;-64
2023/07/21 07:25:47;;;;;;;;;;;15.40;95.10;;;;;;5115815;28;19931;-64
2023/07/21 07:28:14;;;;;;;;;;;15.40;95.40;;;;;;5110005;28;19919;-66
2023/07/21 07:30:41;;;;;;;;;;;15.30;95.50;;;;;;5095201;28;19939;-63
2023/07/21 07:33:07;;;;;;;;;;;15.20;95.80;;;;;;5094821;28;20318;-64
2023/07/21 07:35:34;;;;;;;;;;;15.10;96.00;;;;;;5095414;28;19908;-65
2023/07/21 07:38:01;;;;;;;;;;;15.10;96.30;;;;;;5095476;28;20372;-64
2023/07/21 07:40:27;;;;;;;;;;;15.00;96.40;;;;;;5094816;28;20311;-65
2023/07/21 07:42:54;;;;;;;;;;;15.00;96.70;;;;;;5111837;28;19969;-65
2023/07/21 07:45:21;;;;;;;;;;;14.90;96.70;;;;;;5114959;28;19947;-65
2023/07/21 07:47:49;;;;;;;;;;;14.90;96.90;;;;;;5114726;28;19998;-64
2023/07/21 07:50:16;;;;;;;;;;;14.80;97.00;;;;;;5113330;28;20456;-65
2023/07/21 07:52:43;;;;;;;;;;;14.70;97.20;;;;;;5114658;28;19934;-65
2023/07/21 07:55:10;;;;;;;;;;;14.80;97.50;;;;;;5107457;28;19973;-65
2023/07/21 07:57:36;;;;;;;;;;;14.60;97.50;;;;;;5093314;28;19918;-63
2023/07/21 08:00:07;;;;;;;;;;;14.60;97.70;;;;;;5094387;28;19958;-66
2023/07/21 08:02:34;;;;;;;;;;;14.60;97.80;;;;;;5110803;28;19912;-65
2023/07/21 08:05:01;;;;;;;;;;;14.60;98.00;;;;;;5114275;28;19959;-66
2023/07/21 08:07:27;;;;;;;;;;;14.50;98.20;;;;;;5114471;28;19951;-66
2023/07/21 08:09:54;;;;;;;;;;;14.40;98.10;;;;;;5111702;28;19962;-65
2023/07/21 08:12:20;;;;;;;;;;;14.30;98.20;;;;;;5114479;28;19915;-66
2023/07/21 08:14:47;;;;;;;;;;;14.30;98.30;;;;;;5114302;28;20287;-64
2023/07/21 08:17:14;;;;;;;;;;;14.30;98.50;;;;;;5114775;28;19908;-66
2023/07/21 08:19:41;;;;;;;;;;;14.40;98.70;;;;;;5114619;28;19968;-66
2023/07/21 08:22:08;;;;;;;;;;;14.30;99.10;;;;;;5109514;28;19919;-63
2023/07/21 08:24:34;;;;;;;;;;;14.30;99.10;;;;;;5100679;28;19912;-66
2023/07/21 08:27:03;;;;;;;;;;;14.30;99.20;;;;;;5104840;28;20357;-66
2023/07/21 08:29:29;;;;;;;;;;;14.30;99.30;;;;;;5113663;28;19930;-62
2023/07/21 08:31:56;;;;;;;;;;;14.20;99.40;;;;;;5107658;28;20652;-64
2023/07/21 08:34:22;;;;;;;;;;;14.20;99.50;;;;;;5106758;28;19915;-65
2023/07/21 08:36:49;;;;;;;;;;;14.20;99.70;;;;;;5105666;27;19956;-64
2023/07/21 08:39:16;;;;;;;;;;;14.20;99.90;;;;;;5113358;28;19923;-64
2023/07/21 08:41:46;;;;;;;;;;;14.10;99.90;;;;;;5111317;27;19911;-65
2023/07/21 08:44:14;;;;;;;;;;;14.10;99.90;;;;;;5115424;27;19930;-65
2023/07/21 08:46:41;;;;;;;;;;;14.00;99.90;;;;;;5133691;27;19963;-65
2023/07/21 08:49:08;;;;;;;;;;;14.00;99.90;;;;;;5133874;27;20469;-66
2023/07/21 08:51:37;;;;;;;;;;;13.90;99.90;;;;;;5108288;27;19927;-61
2023/07/21 08:54:04;;;;;;;;;;;13.90;99.90;;;;;;5113089;28;19945;-63
2023/07/21 08:56:31;;;;;;;;;;;13.90;99.90;;;;;;5113077;28;19927;-64
2023/07/21 08:58:57;;;;;;;;;;;13.80;99.90;;;;;;5104510;28;19998;-66
2023/07/21 09:01:24;;;;;;;;;;;13.80;99.90;;;;;;5100263;28;19999;-66
2023/07/21 09:03:51;;;;;;;;;;;13.70;99.90;;;;;;5106081;28;19915;-65
2023/07/21 09:06:18;;;;;;;;;;;13.80;99.90;;;;;;5110873;28;19964;-65
2023/07/21 09:08:47;;;;;;;;;;;13.70;99.90;;;;;;5102867;28;19961;-65
2023/07/21 09:11:14;;;;;;;;;;;13.60;99.90;;;;;;5112867;28;20452;-66
2023/07/21 09:13:49;;;;;;;;;;;13.70;99.90;;;;;;5111487;28;19920;-66
2023/07/21 09:16:17;;;;;;;;;;;13.60;99.90;;;;;;5115858;27;19916;-63
2023/07/21 09:18:44;;;;;;;;;;;13.50;99.90;;;;;;5114246;27;19915;-65
2023/07/21 09:21:20;;;;;;;;;;;13.50;99.90;;;;;;5108760;28;19919;-65
2023/07/21 09:23:48;;;;;;;;;;;13.50;99.90;;;;;;5110801;28;19912;-66
2023/07/21 09:26:23;;;;;;;;;;;13.50;99.90;;;;;;5109507;28;19908;-64
2023/07/21 09:28:50;;;;;;;;;;;13.40;99.90;;;;;;5110961;28;19933;-65
2023/07/21 09:31:17;;;;;;;;;;;13.50;99.90;;;;;;5109347;28;19916;-65
2023/07/21 09:33:46;;;;;;;;;;;13.50;99.90;;;;;;5112214;28;19918;-66
2023/07/21 09:36:15;;;;;;;;;;;13.50;99.90;;;;;;5108554;27;19968;-64
2023/07/21 09:38:42;;;;;;;;;;;13.50;99.90;;;;;;5093886;28;19918;-64
2023/07/21 09:41:10;;;;;;;;;;;13.50;99.90;;;;;;5110199;27;19968;-68
2023/07/21 09:43:38;;;;;;;;;;;13.50;99.90;;;;;;5105010;27;19927;-67
2023/07/21 09:46:06;;;;;;;;;;;13.50;99.90;;;;;;5107311;28;20384;-67
2023/07/21 09:48:34;;;;;;;;;;;13.50;99.90;;;;;;5100038;28;19916;-65
2023/07/21 09:51:02;;;;;;;;;;;13.40;99.90;;;;;;5104032;28;19916;-66
2023/07/21 09:53:30;;;;;;;;;;;13.40;99.90;;;;;;5103993;28;19912;-65
2023/07/21 09:55:59;;;;;;;;;;;13.40;99.90;;;;;;5110708;28;19915;-64
2023/07/21 09:58:28;;;;;;;;;;;13.30;99.90;;;;;;5109771;28;20292;-64
2023/07/21 10:00:54;;;;;;;;;;;13.20;99.90;;;;;;5108345;28;19919;-70
2023/07/21 10:03:22;;;;;;;;;;;13.20;99.90;;;;;;5110765;28;19912;-66
2023/07/21 10:05:49;;;;;;;;;;;13.20;99.90;;;;;;5106628;28;19960;-66
2023/07/21 10:08:16;;;;;;;;;;;13.10;99.90;;;;;;5109661;28;19916;-67
2023/07/21 10:10:42;;;;;;;;;;;13.00;99.90;;;;;;5108215;28;20010;-68
2023/07/21 10:13:11;;;;;;;;;;;13.00;99.90;;;;;;5107958;28;19915;-69
2023/07/21 10:15:40;;;;;;;;;;;12.90;99.90;;;;;;5107245;28;19912;-66
2023/07/21 10:18:08;;;;;;;;;;;12.90;99.90;;;;;;5108280;28;20364;-64
2023/07/21 10:20:50;;;;;;;;;;;12.90;99.90;;;;;;5108242;28;19911;-63
2023/07/21 10:23:17;;;;;;;;;;;12.90;99.90;;;;;;5113356;27;19920;-64
2023/07/21 10:26:01;;;;;;;;;;;12.80;99.90;;;;;;5111335;28;19926;-66
2023/07/21 10:28:32;;;;;;;;;;;12.80;99.90;;;;;;5115395;27;19911;-62
2023/07/21 10:31:17;;;;;;;;;;;12.80;99.90;;;;;;5112499;28;20387;-67
2023/07/21 10:34:01;;;;;;;;;;;12.80;99.90;;;;;;5112845;28;20010;-68
2023/07/21 10:36:39;;;;;;;;;;;12.80;99.90;;;;;;5106953;28;19958;-64
2023/07/21 10:39:12;;;;;;;;;;;12.90;99.90;;;;;;5113239;28;20366;-65
2023/07/21 10:41:39;;;;;;;;;;;12.80;99.90;;;;;;5113169;27;19908;-66
2023/07/21 10:44:10;;;;;;;;;;;12.80;99.90;;;;;;5114825;27;19920;-66
2023/07/21 10:46:37;;;;;;;;;;;12.90;99.90;;;;;;5110650;28;20685;-69
2023/07/21 10:49:04;;;;;;;;;;;12.90;99.90;;;;;;5114296;28;19915;-65
2023/07/21 10:51:31;;;;;;;;;;;12.90;99.90;;;;;;5113727;28;19923;-63
2023/07/21 10:53:57;;;;;;;;;;;12.90;99.90;;;;;;5114514;28;19920;-67
2023/07/21 10:56:24;;;;;;;;;;;12.90;99.90;;;;;;5110868;28;20003;-63
2023/07/21 10:58:52;;;;;;;;;;;12.90;99.90;;;;;;5113726;27;19953;-62
2023/07/21 11:01:19;;;;;;;;;;;12.80;99.90;;;;;;5113391;28;19962;-66
2023/07/21 11:03:46;;;;;;;;;;;12.80;99.90;;;;;;5114469;27;20010;-67
2023/07/21 11:06:13;;;;;;;;;;;12.80;99.90;;;;;;5112117;28;20029;-68
2023/07/21 11:08:40;;;;;;;;;;;12.70;99.90;;;;;;5113750;27;19956;-67
2023/07/21 11:11:08;;;;;;;;;;;12.80;99.90;;;;;;5113740;28;19927;-65
2023/07/21 11:13:36;;;;;;;;;;;12.80;99.90;;;;;;5110473;28;19915;-64
2023/07/21 11:16:03;;;;;;;;;;;12.80;99.90;;;;;;5110130;28;19965;-64
2023/07/21 11:18:29;;;;;;;;;;;12.80;99.90;;;;;;5113072;28;19907;-65
2023/07/21 11:20:56;;;;;;;;;;;12.90;99.90;;;;;;5113200;28;19960;-66
2023/07/21 11:23:23;;;;;;;;;;;12.90;99.90;;;;;;5113037;28;19949;-66
2023/07/21 11:26:07;;;;;;;;;;;13.00;99.90;;;;;;5113516;28;19977;-67
2023/07/21 11:28:35;;;;;;;;;;;13.00;99.90;;;;;;5112987;28;19907;-64
2023/07/21 11:31:01;;;;;;;;;;;13.00;99.90;;;;;;5112196;28;20007;-64
2023/07/21 11:33:50;;;;;;;;;;;13.00;99.90;;;;;;5110532;28;20285;-64
2023/07/21 11:36:18;;;;;;;;;;;13.10;99.90;;;;;;5107821;28;19912;-64
2023/07/21 11:38:58;;;;;;;;;;;13.20;99.90;;;;;;5112614;27;19957;-63
2023/07/21 11:41:40;;;;;;;;;;;13.20;99.90;;;;;;5109794;28;20368;-64
2023/07/21 11:44:17;;;;;;;;;;;13.10;99.90;;;;;;5110431;28;20292;-63
2023/07/21 11:46:53;;;;;;;;;;;13.20;99.90;;;;;;5108062;28;19912;-67
2023/07/21 11:49:20;;;;;;;;;;;13.20;99.90;;;;;;5115491;27;19915;-62
2023/07/21 11:51:47;;;;;;;;;;;13.20;99.90;;;;;;5110439;28;19924;-65
2023/07/21 11:54:19;;;;;;;;;;;13.20;99.90;;;;;;5113925;27;19912;-67
2023/07/21 11:56:46;;;;;;;;;;;13.20;99.90;;;;;;5105326;28;19998;-68
2023/07/21 11:59:13;;;;;;;;;;;13.10;99.90;;;;;;5112252;28;19916;-65
2023/07/21 12:01:40;;;;;;;;;;;13.00;99.90;;;;;;5095772;28;19919;-67
2023/07/21 12:04:08;;;;;;;;;;;13.00;99.90;;;;;;5111507;27;19912;-65
2023/07/21 12:06:35;;;;;;;;;;;12.90;99.90;;;;;;5108333;28;20011;-67
2023/07/21 12:09:01;;;;;;;;;;;12.90;99.90;;;;;;5110536;28;19911;-65
2023/07/21 12:11:28;;;;;;;;;;;12.80;99.90;;;;;;5105925;28;20334;-63
2023/07/21 12:13:55;;;;;;;;;;;12.80;99.90;;;;;;5090905;28;20245;-66
2023/07/21 12:16:22;;;;;;;;;;;12.70;99.90;;;;;;5110509;28;20416;-65
2023/07/21 12:18:48;;;;;;;;;;;12.70;99.90;;;;;;5107625;28;19912;-66
2023/07/21 12:21:17;;;;;;;;;;;12.70;99.90;;;;;;5106976;28;19912;-68
2023/07/21 12:23:44;;;;;;;;;;;12.60;99.90;;;;;;5106359;28;19918;-65
2023/07/21 12:26:10;;;;;;;;;;;12.60;99.90;;;;;;5111782;28;19953;-65
2023/07/21 12:28:38;;;;;;;;;;;12.60;99.90;;;;;;5094274;27;20027;-63
2023/07/21 12:31:05;;;;;;;;;;;12.60;99.90;;;;;;5098530;27;20300;-65
2023/07/21 12:33:32;;;;;;;;;;;12.60;99.90;;;;;;5095869;28;19964;-67
2023/07/21 12:35:58;;;;;;;;;;;12.60;99.90;;;;;;5101209;28;19965;-64
2023/07/21 12:38:25;;;;;;;;;;;12.60;99.90;;;;;;5092017;28;20478;-65
2023/07/21 12:40:52;;;;;;;;;;;12.70;99.90;;;;;;5111630;28;19912;-66
2023/07/21 12:43:19;;;;;;;;;;;12.70;99.90;;;;;;5094721;28;19920;-66
2023/07/21 12:45:46;;;;;;;;;;;12.70;99.90;;;;;;5093367;28;19912;-65
2023/07/21 12:48:12;;;;;;;;;;;12.60;99.90;;;;;;5093194;28;19912;-66
2023/07/21 12:50:39;;;;;;;;;;;12.70;99.90;;;;;;5094185;28;19923;-65
2023/07/21 12:53:06;;;;;;;;;;;12.60;99.90;;;;;;5113589;28;19907;-64
2023/07/21 12:55:33;;;;;;;;;;;12.60;99.90;;;;;;5113448;28;20360;-62
2023/07/21 12:57:59;;;;;;;;;;;12.60;99.90;;;;;;5106638;28;19916;-64
2023/07/21 13:00:26;;;;;;;;;;;12.50;99.90;;;;;;5092954;28;20367;-63
2023/07/21 13:02:52;;;;;;;;;;;12.50;99.90;;;;;;5112647;28;19919;-63
2023/07/21 13:05:19;;;;;;;;;;;12.40;99.90;;;;;;5113465;28;20375;-67
2023/07/21 13:07:46;;;;;;;;;;;12.40;99.90;;;;;;5112895;28;19919;-64
2023/07/21 13:10:13;;;;;;;;;;;12.30;99.90;;;;;;5112628;28;20380;-69
2023/07/21 13:12:40;;;;;;;;;;;12.20;99.90;;;;;;5112790;28;19911;-64
2023/07/21 13:15:07;;;;;;;;;;;12.20;99.90;;;;;;5113084;28;19908;-64
2023/07/21 13:17:33;;;;;;;;;;;12.10;99.90;;;;;;5113308;28;20014;-64
2023/07/21 13:20:00;;;;;;;;;;;12.10;99.90;;;;;;5113411;28;19908;-63
2023/07/21 13:22:27;;;;;;;;;;;12.00;99.90;;;;;;5113188;28;19908;-65
2023/07/21 13:24:53;;;;;;;;;;;12.00;99.90;;;;;;5112781;28;20390;-64
2023/07/21 13:27:20;;;;;;;;;;;12.00;99.90;;;;;;5112651;28;19947;-64
2023/07/21 13:29:47;;;;;;;;;;;12.00;99.90;;;;;;5112808;28;19912;-65
2023/07/21 13:32:13;;;;;;;;;;;12.00;99.90;;;;;;5112508;28;19916;-64
2023/07/21 13:34:40;;;;;;;;;;;11.90;99.90;;;;;;5112174;28;19993;-64
2023/07/21 13:37:07;;;;;;;;;;;12.00;99.90;;;;;;5093349;28;20452;-65
2023/07/21 13:39:33;;;;;;;;;;;12.00;99.90;;;;;;5091864;28;19916;-64
2023/07/21 13:42:00;;;;;;;;;;;12.10;99.90;;;;;;5092331;28;20274;-67
2023/07/21 13:44:27;;;;;;;;;;;12.10;99.90;;;;;;5092900;28;19916;-66
2023/07/21 13:46:54;;;;;;;;;;;12.10;99.90;;;;;;5092755;28;20276;-63
2023/07/21 13:49:23;;;;;;;;;;;12.10;99.90;;;;;;5092838;28;20352;-64
2023/07/21 13:51:50;;;;;;;;;;;12.10;99.90;;;;;;5092200;28;19927;-65
2023/07/21 13:54:16;;;;;;;;;;;12.20;99.90;;;;;;5104037;28;19926;-64
2023/07/21 13:56:43;;;;;;;;;;;12.20;99.90;;;;;;5112344;28;20363;-65
2023/07/21 13:59:10;;;;;;;;;;;12.30;99.90;;;;;;5094189;28;19908;-65
2023/07/21 14:01:36;;;;;;;;;;;12.20;99.90;;;;;;5113059;28;19908;-65
2023/07/21 14:04:03;;;;;;;;;;;12.30;99.90;;;;;;5113117;28;19908;-65
2023/07/21 14:06:30;;;;;;;;;;;12.20;99.90;;;;;;5112935;28;19914;-66
2023/07/21 14:08:56;;;;;;;;;;;12.40;99.90;;;;;;5113099;28;19908;-66
2023/07/21 14:11:23;;;;;;;;;;;12.30;99.90;;;;;;5112532;28;19977;-67
2023/07/21 14:13:52;;;;;;;;;;;12.30;99.90;;;;;;5112928;28;19908;-65
2023/07/21 14:16:18;;;;;;;;;;;12.40;99.90;;;;;;5112971;28;20368;-67
2023/07/21 14:18:45;;;;;;;;;;;12.30;99.90;;;;;;5113199;28;20392;-65